Death Valley, California
Current Conditions -  °F | °C
As of 4:52 AM on Monday 20 Oct 2014 (Local Time) from KDRA Reporting Station
Clear Clear  
Wind Chill: 56°   Ceiling: Unl
Heat Index: 56°   Visibility: 10mi
Dew Point: 33°   Wind: 0mph
Humidity: 42%   Direction: NA
Pressure: 29.94"   Gusts: NA
Location:  36.46°N, 116.87°W
Report Text: KDRA 201152Z AUTO 00000KT 10SM CLR 13/01 A2994 RMK AO2 SLP101 T01330006 10167 20122 55000
Loading
Personal Weather Stations






























Interactive Weather Map
Tropical Storm Tracking
New forecast layout! Learn more

10-Day Weather Forecast

Advertisements
Track Severe Weather on mobile